Terminal Aerodrome Forecast
Issued by NWS

Home | Current Version | Previous Version | Text Only | Print | Product List | Glossary On
Versions: 1 2 3 4 5 6 7 8 9 10 11 12 13 14 15 16
000
FTUS41 KRNK 300536
TAFBCB
TAF
KBCB 300536Z 3006/3106 00000KT 4SM BR SCT006 BKN100
      TEMPO 3006/3010 1 1/2SM BR BKN006
     FM301100 00000KT 4SM BR VCSH OVC020
     FM301400 VRB04KT P6SM SCT020 BKN100
     FM301700 03004KT P6SM VCTS BKN045CB
     FM302300 00000KT P6SM SCT045 BKN100=

USA.gov is the U.S. government's official web portal to all federal, state and local government web resources and services.